sensor_id;sensor_type;location;lat;lon;timestamp;P1;durP1;ratioP1;P2;durP2;ratioP2
26335;SDS011;14047;50.936;4.654;2023-03-01T00:01:25;23.85;;;12.82;;
26335;SDS011;14047;50.936;4.654;2023-03-01T00:03:54;23.15;;;12.68;;
26335;SDS011;14047;50.936;4.654;2023-03-01T00:06:20;20.80;;;11.50;;
26335;SDS011;14047;50.936;4.654;2023-03-01T00:08:47;21.45;;;11.57;;
26335;SDS011;14047;50.936;4.654;2023-03-01T00:13:51;18.17;;;12.25;;
26335;SDS011;14047;50.936;4.654;2023-03-01T00:16:29;22.17;;;12.95;;
26335;SDS011;14047;50.936;4.654;2023-03-01T00:18:58;20.42;;;12.38;;
26335;SDS011;14047;50.936;4.654;2023-03-01T00:21:25;25.23;;;13.13;;
26335;SDS011;14047;50.936;4.654;2023-03-01T00:23:51;19.45;;;12.48;;
26335;SDS011;14047;50.936;4.654;2023-03-01T00:26:19;25.23;;;12.75;;
26335;SDS011;14047;50.936;4.654;2023-03-01T00:28:46;21.00;;;13.05;;
26335;SDS011;14047;50.936;4.654;2023-03-01T00:31:14;22.33;;;12.35;;
26335;SDS011;14047;50.936;4.654;2023-03-01T00:33:42;21.67;;;12.55;;
26335;SDS011;14047;50.936;4.654;2023-03-01T00:36:09;22.80;;;13.07;;
26335;SDS011;14047;50.936;4.654;2023-03-01T00:38:37;21.45;;;12.98;;
26335;SDS011;14047;50.936;4.654;2023-03-01T00:41:09;25.02;;;13.40;;
26335;SDS011;14047;50.936;4.654;2023-03-01T00:43:37;25.80;;;13.73;;
26335;SDS011;14047;50.936;4.654;2023-03-01T00:46:10;27.08;;;14.85;;
26335;SDS011;14047;50.936;4.654;2023-03-01T00:48:38;30.05;;;14.70;;
26335;SDS011;14047;50.936;4.654;2023-03-01T00:51:37;31.00;;;14.98;;
26335;SDS011;14047;50.936;4.654;2023-03-01T00:53:58;25.17;;;14.13;;
26335;SDS011;14047;50.936;4.654;2023-03-01T00:56:26;24.48;;;14.45;;
26335;SDS011;14047;50.936;4.654;2023-03-01T00:58:53;21.55;;;13.18;;
26335;SDS011;14047;50.936;4.654;2023-03-01T01:01:20;25.27;;;13.63;;
26335;SDS011;14047;50.936;4.654;2023-03-01T01:04:01;23.10;;;13.85;;
26335;SDS011;14047;50.936;4.654;2023-03-01T01:06:31;25.27;;;13.52;;
26335;SDS011;14047;50.936;4.654;2023-03-01T01:09:06;23.85;;;13.57;;
26335;SDS011;14047;50.936;4.654;2023-03-01T01:11:33;23.00;;;13.40;;
26335;SDS011;14047;50.936;4.654;2023-03-01T01:14:02;24.75;;;13.90;;
26335;SDS011;14047;50.936;4.654;2023-03-01T01:16:29;25.88;;;14.18;;
26335;SDS011;14047;50.936;4.654;2023-03-01T01:18:55;23.27;;;12.85;;
26335;SDS011;14047;50.936;4.654;2023-03-01T01:21:22;22.45;;;12.77;;
26335;SDS011;14047;50.936;4.654;2023-03-01T01:23:50;23.08;;;12.68;;
26335;SDS011;14047;50.936;4.654;2023-03-01T01:26:21;24.27;;;13.93;;
26335;SDS011;14047;50.936;4.654;2023-03-01T01:28:49;28.17;;;13.40;;
26335;SDS011;14047;50.936;4.654;2023-03-01T01:31:16;20.88;;;12.75;;
26335;SDS011;14047;50.936;4.654;2023-03-01T01:33:42;25.85;;;13.63;;
26335;SDS011;14047;50.936;4.654;2023-03-01T01:36:09;23.20;;;12.88;;
26335;SDS011;14047;50.936;4.654;2023-03-01T01:38:35;22.77;;;13.70;;
26335;SDS011;14047;50.936;4.654;2023-03-01T01:41:03;22.13;;;12.95;;
26335;SDS011;14047;50.936;4.654;2023-03-01T01:43:34;23.05;;;13.00;;
26335;SDS011;14047;50.936;4.654;2023-03-01T01:46:07;24.38;;;11.82;;
26335;SDS011;14047;50.936;4.654;2023-03-01T01:48:40;23.67;;;12.35;;
26335;SDS011;14047;50.936;4.654;2023-03-01T01:51:13;23.30;;;12.75;;
26335;SDS011;14047;50.936;4.654;2023-03-01T01:53:46;24.17;;;13.63;;
26335;SDS011;14047;50.936;4.654;2023-03-01T01:56:16;21.45;;;12.70;;
26335;SDS011;14047;50.936;4.654;2023-03-01T01:58:43;23.33;;;12.13;;
26335;SDS011;14047;50.936;4.654;2023-03-01T02:01:11;22.50;;;12.23;;
26335;SDS011;14047;50.936;4.654;2023-03-01T02:03:38;22.67;;;13.07;;
26335;SDS011;14047;50.936;4.654;2023-03-01T02:06:18;28.40;;;14.18;;
26335;SDS011;14047;50.936;4.654;2023-03-01T02:09:07;25.73;;;13.82;;
26335;SDS011;14047;50.936;4.654;2023-03-01T02:11:36;24.42;;;13.10;;
26335;SDS011;14047;50.936;4.654;2023-03-01T02:14:03;26.50;;;13.88;;
26335;SDS011;14047;50.936;4.654;2023-03-01T02:16:29;25.38;;;13.05;;
26335;SDS011;14047;50.936;4.654;2023-03-01T02:18:56;25.17;;;13.93;;
26335;SDS011;14047;50.936;4.654;2023-03-01T02:24:28;26.33;;;13.13;;
26335;SDS011;14047;50.936;4.654;2023-03-01T02:27:01;21.73;;;12.32;;
26335;SDS011;14047;50.936;4.654;2023-03-01T02:29:27;25.25;;;12.95;;
26335;SDS011;14047;50.936;4.654;2023-03-01T02:31:54;22.42;;;12.13;;
26335;SDS011;14047;50.936;4.654;2023-03-01T02:34:25;23.55;;;12.60;;
26335;SDS011;14047;50.936;4.654;2023-03-01T02:37:12;22.98;;;13.75;;
26335;SDS011;14047;50.936;4.654;2023-03-01T02:39:42;20.30;;;12.68;;
26335;SDS011;14047;50.936;4.654;2023-03-01T02:42:14;20.63;;;12.57;;
26335;SDS011;14047;50.936;4.654;2023-03-01T02:44:43;25.52;;;12.88;;
26335;SDS011;14047;50.936;4.654;2023-03-01T02:47:09;22.92;;;13.15;;
26335;SDS011;14047;50.936;4.654;2023-03-01T02:49:36;26.52;;;12.68;;
26335;SDS011;14047;50.936;4.654;2023-03-01T02:55:12;23.30;;;13.30;;
26335;SDS011;14047;50.936;4.654;2023-03-01T02:57:42;21.00;;;12.73;;
26335;SDS011;14047;50.936;4.654;2023-03-01T03:00:14;20.55;;;12.00;;
26335;SDS011;14047;50.936;4.654;2023-03-01T03:02:47;24.73;;;13.93;;
26335;SDS011;14047;50.936;4.654;2023-03-01T03:05:18;25.63;;;13.30;;
26335;SDS011;14047;50.936;4.654;2023-03-01T03:07:57;24.80;;;12.65;;
26335;SDS011;14047;50.936;4.654;2023-03-01T03:10:32;23.25;;;12.10;;
26335;SDS011;14047;50.936;4.654;2023-03-01T03:13:02;23.35;;;12.60;;
26335;SDS011;14047;50.936;4.654;2023-03-01T03:15:30;25.73;;;13.68;;
26335;SDS011;14047;50.936;4.654;2023-03-01T03:17:57;23.55;;;12.88;;
26335;SDS011;14047;50.936;4.654;2023-03-01T03:20:25;23.92;;;12.48;;
26335;SDS011;14047;50.936;4.654;2023-03-01T03:22:54;25.00;;;12.82;;
26335;SDS011;14047;50.936;4.654;2023-03-01T03:25:21;20.52;;;11.70;;
26335;SDS011;14047;50.936;4.654;2023-03-01T03:27:50;20.75;;;12.05;;
26335;SDS011;14047;50.936;4.654;2023-03-01T03:30:23;20.58;;;12.23;;
26335;SDS011;14047;50.936;4.654;2023-03-01T03:32:50;21.52;;;11.63;;
26335;SDS011;14047;50.936;4.654;2023-03-01T03:35:24;25.73;;;12.50;;
26335;SDS011;14047;50.936;4.654;2023-03-01T03:38:19;23.92;;;11.93;;
26335;SDS011;14047;50.936;4.654;2023-03-01T03:40:48;24.65;;;12.50;;
26335;SDS011;14047;50.936;4.654;2023-03-01T03:43:16;24.00;;;11.60;;
26335;SDS011;14047;50.936;4.654;2023-03-01T03:45:48;22.90;;;12.68;;
26335;SDS011;14047;50.936;4.654;2023-03-01T03:48:16;23.73;;;12.70;;
26335;SDS011;14047;50.936;4.654;2023-03-01T03:50:46;27.30;;;13.18;;
26335;SDS011;14047;50.936;4.654;2023-03-01T03:53:14;23.67;;;12.20;;
26335;SDS011;14047;50.936;4.654;2023-03-01T03:55:40;24.92;;;12.65;;
26335;SDS011;14047;50.936;4.654;2023-03-01T03:58:07;19.00;;;11.50;;
26335;SDS011;14047;50.936;4.654;2023-03-01T04:00:35;24.35;;;12.85;;
26335;SDS011;14047;50.936;4.654;2023-03-01T04:03:03;23.48;;;12.20;;
26335;SDS011;14047;50.936;4.654;2023-03-01T04:05:29;20.17;;;12.35;;
26335;SDS011;14047;50.936;4.654;2023-03-01T04:07:55;19.45;;;11.60;;
26335;SDS011;14047;50.936;4.654;2023-03-01T04:10:28;25.77;;;12.05;;
26335;SDS011;14047;50.936;4.654;2023-03-01T04:12:56;22.88;;;12.70;;
26335;SDS011;14047;50.936;4.654;2023-03-01T04:15:23;25.00;;;12.20;;
26335;SDS011;14047;50.936;4.654;2023-03-01T04:17:51;23.65;;;12.27;;
26335;SDS011;14047;50.936;4.654;2023-03-01T04:20:19;18.52;;;11.27;;
26335;SDS011;14047;50.936;4.654;2023-03-01T04:22:51;22.52;;;12.38;;
26335;SDS011;14047;50.936;4.654;2023-03-01T04:25:22;22.55;;;11.70;;
26335;SDS011;14047;50.936;4.654;2023-03-01T04:27:51;23.00;;;11.30;;
26335;SDS011;14047;50.936;4.654;2023-03-01T04:30:17;19.00;;;11.40;;
26335;SDS011;14047;50.936;4.654;2023-03-01T04:32:43;22.00;;;12.55;;
26335;SDS011;14047;50.936;4.654;2023-03-01T04:35:09;23.00;;;12.60;;
26335;SDS011;14047;50.936;4.654;2023-03-01T04:37:35;21.88;;;12.00;;
26335;SDS011;14047;50.936;4.654;2023-03-01T04:40:02;23.67;;;13.18;;
26335;SDS011;14047;50.936;4.654;2023-03-01T04:42:41;26.77;;;12.57;;
26335;SDS011;14047;50.936;4.654;2023-03-01T04:45:07;23.10;;;12.98;;
26335;SDS011;14047;50.936;4.654;2023-03-01T04:47:39;22.75;;;12.00;;
26335;SDS011;14047;50.936;4.654;2023-03-01T04:50:06;25.77;;;11.90;;
26335;SDS011;14047;50.936;4.654;2023-03-01T04:52:33;23.20;;;11.77;;
26335;SDS011;14047;50.936;4.654;2023-03-01T04:54:59;20.52;;;12.07;;
26335;SDS011;14047;50.936;4.654;2023-03-01T04:57:25;28.67;;;13.60;;
26335;SDS011;14047;50.936;4.654;2023-03-01T04:59:51;21.60;;;11.00;;
26335;SDS011;14047;50.936;4.654;2023-03-01T05:02:17;21.25;;;12.27;;
26335;SDS011;14047;50.936;4.654;2023-03-01T05:04:43;22.55;;;11.68;;
26335;SDS011;14047;50.936;4.654;2023-03-01T05:07:09;20.02;;;11.93;;
26335;SDS011;14047;50.936;4.654;2023-03-01T05:09:35;21.05;;;12.38;;
26335;SDS011;14047;50.936;4.654;2023-03-01T05:12:01;21.55;;;11.88;;
26335;SDS011;14047;50.936;4.654;2023-03-01T05:14:26;20.83;;;12.18;;
26335;SDS011;14047;50.936;4.654;2023-03-01T05:16:54;21.65;;;10.77;;
26335;SDS011;14047;50.936;4.654;2023-03-01T05:19:19;18.90;;;11.40;;
26335;SDS011;14047;50.936;4.654;2023-03-01T05:21:48;25.35;;;13.10;;
26335;SDS011;14047;50.936;4.654;2023-03-01T05:24:29;21.23;;;12.15;;
26335;SDS011;14047;50.936;4.654;2023-03-01T05:26:57;19.45;;;11.43;;
26335;SDS011;14047;50.936;4.654;2023-03-01T05:29:24;24.27;;;11.98;;
26335;SDS011;14047;50.936;4.654;2023-03-01T05:31:52;22.92;;;12.45;;
26335;SDS011;14047;50.936;4.654;2023-03-01T05:34:22;21.30;;;11.45;;
26335;SDS011;14047;50.936;4.654;2023-03-01T05:36:51;20.67;;;11.77;;
26335;SDS011;14047;50.936;4.654;2023-03-01T05:39:25;19.05;;;11.65;;
26335;SDS011;14047;50.936;4.654;2023-03-01T05:41:53;25.85;;;11.90;;
26335;SDS011;14047;50.936;4.654;2023-03-01T05:44:20;24.15;;;12.70;;
26335;SDS011;14047;50.936;4.654;2023-03-01T05:46:46;24.65;;;11.27;;
26335;SDS011;14047;50.936;4.654;2023-03-01T05:49:12;22.83;;;12.75;;
26335;SDS011;14047;50.936;4.654;2023-03-01T05:51:39;24.88;;;12.25;;
26335;SDS011;14047;50.936;4.654;2023-03-01T05:54:06;23.27;;;12.60;;
26335;SDS011;14047;50.936;4.654;2023-03-01T05:56:33;18.63;;;11.73;;
26335;SDS011;14047;50.936;4.654;2023-03-01T05:59:00;24.20;;;12.40;;
26335;SDS011;14047;50.936;4.654;2023-03-01T06:01:26;17.98;;;11.15;;
26335;SDS011;14047;50.936;4.654;2023-03-01T06:03:53;24.67;;;12.27;;
26335;SDS011;14047;50.936;4.654;2023-03-01T06:06:19;26.60;;;12.30;;
26335;SDS011;14047;50.936;4.654;2023-03-01T06:08:44;27.85;;;12.25;;
26335;SDS011;14047;50.936;4.654;2023-03-01T06:11:10;24.27;;;12.00;;
26335;SDS011;14047;50.936;4.654;2023-03-01T06:13:36;27.77;;;12.52;;
26335;SDS011;14047;50.936;4.654;2023-03-01T06:16:05;19.55;;;10.98;;
26335;SDS011;14047;50.936;4.654;2023-03-01T06:18:32;28.63;;;12.55;;
26335;SDS011;14047;50.936;4.654;2023-03-01T06:20:58;23.92;;;12.40;;
26335;SDS011;14047;50.936;4.654;2023-03-01T06:23:24;22.35;;;12.13;;
26335;SDS011;14047;50.936;4.654;2023-03-01T06:25:50;22.30;;;11.75;;
26335;SDS011;14047;50.936;4.654;2023-03-01T06:28:16;19.88;;;12.45;;
26335;SDS011;14047;50.936;4.654;2023-03-01T06:30:43;28.75;;;12.48;;
26335;SDS011;14047;50.936;4.654;2023-03-01T06:33:09;27.17;;;15.02;;
26335;SDS011;14047;50.936;4.654;2023-03-01T06:35:35;21.33;;;12.07;;
26335;SDS011;14047;50.936;4.654;2023-03-01T06:38:02;20.90;;;11.75;;
26335;SDS011;14047;50.936;4.654;2023-03-01T06:40:29;23.70;;;12.70;;
26335;SDS011;14047;50.936;4.654;2023-03-01T06:42:56;23.98;;;12.52;;
26335;SDS011;14047;50.936;4.654;2023-03-01T06:45:23;24.35;;;13.13;;
26335;SDS011;14047;50.936;4.654;2023-03-01T06:47:49;23.45;;;12.65;;
26335;SDS011;14047;50.936;4.654;2023-03-01T06:50:16;22.83;;;12.70;;
26335;SDS011;14047;50.936;4.654;2023-03-01T06:52:43;28.33;;;16.15;;
26335;SDS011;14047;50.936;4.654;2023-03-01T06:55:10;31.67;;;14.32;;
26335;SDS011;14047;50.936;4.654;2023-03-01T06:57:37;21.30;;;12.73;;
26335;SDS011;14047;50.936;4.654;2023-03-01T07:00:03;28.58;;;14.38;;
26335;SDS011;14047;50.936;4.654;2023-03-01T07:02:31;27.15;;;14.00;;
26335;SDS011;14047;50.936;4.654;2023-03-01T07:04:57;23.45;;;13.55;;
26335;SDS011;14047;50.936;4.654;2023-03-01T07:07:23;35.92;;;13.93;;
26335;SDS011;14047;50.936;4.654;2023-03-01T07:09:49;27.23;;;14.10;;
26335;SDS011;14047;50.936;4.654;2023-03-01T07:12:15;26.80;;;14.13;;
26335;SDS011;14047;50.936;4.654;2023-03-01T07:14:43;26.77;;;13.25;;
26335;SDS011;14047;50.936;4.654;2023-03-01T07:17:09;25.33;;;13.60;;
26335;SDS011;14047;50.936;4.654;2023-03-01T07:19:35;29.67;;;13.30;;
26335;SDS011;14047;50.936;4.654;2023-03-01T07:22:01;29.17;;;13.93;;
26335;SDS011;14047;50.936;4.654;2023-03-01T07:24:29;34.92;;;14.80;;
26335;SDS011;14047;50.936;4.654;2023-03-01T07:26:55;26.25;;;14.52;;
26335;SDS011;14047;50.936;4.654;2023-03-01T07:29:21;29.05;;;13.70;;
26335;SDS011;14047;50.936;4.654;2023-03-01T07:31:47;28.08;;;13.85;;
26335;SDS011;14047;50.936;4.654;2023-03-01T07:34:13;30.65;;;13.80;;
26335;SDS011;14047;50.936;4.654;2023-03-01T07:36:39;30.25;;;15.40;;
26335;SDS011;14047;50.936;4.654;2023-03-01T07:39:09;26.52;;;14.82;;
26335;SDS011;14047;50.936;4.654;2023-03-01T07:41:37;25.17;;;13.85;;
26335;SDS011;14047;50.936;4.654;2023-03-01T07:44:03;27.30;;;13.32;;
26335;SDS011;14047;50.936;4.654;2023-03-01T07:46:29;25.67;;;13.88;;
26335;SDS011;14047;50.936;4.654;2023-03-01T07:48:55;22.23;;;13.63;;
26335;SDS011;14047;50.936;4.654;2023-03-01T07:51:23;29.33;;;14.73;;
26335;SDS011;14047;50.936;4.654;2023-03-01T07:53:49;25.38;;;13.38;;
26335;SDS011;14047;50.936;4.654;2023-03-01T07:56:17;27.10;;;15.13;;
26335;SDS011;14047;50.936;4.654;2023-03-01T07:58:44;29.27;;;13.85;;
26335;SDS011;14047;50.936;4.654;2023-03-01T08:01:11;26.30;;;13.40;;
26335;SDS011;14047;50.936;4.654;2023-03-01T08:03:39;28.00;;;13.52;;
26335;SDS011;14047;50.936;4.654;2023-03-01T08:06:07;20.92;;;12.55;;
26335;SDS011;14047;50.936;4.654;2023-03-01T08:08:35;23.70;;;13.80;;
26335;SDS011;14047;50.936;4.654;2023-03-01T08:11:02;20.80;;;12.35;;
26335;SDS011;14047;50.936;4.654;2023-03-01T08:13:30;23.70;;;12.70;;
26335;SDS011;14047;50.936;4.654;2023-03-01T08:16:03;23.45;;;12.32;;
26335;SDS011;14047;50.936;4.654;2023-03-01T08:18:33;22.30;;;12.93;;
26335;SDS011;14047;50.936;4.654;2023-03-01T08:21:06;23.40;;;12.50;;
26335;SDS011;14047;50.936;4.654;2023-03-01T08:23:33;27.23;;;12.73;;
26335;SDS011;14047;50.936;4.654;2023-03-01T08:26:04;21.80;;;12.05;;
26335;SDS011;14047;50.936;4.654;2023-03-01T08:28:41;20.10;;;11.93;;
26335;SDS011;14047;50.936;4.654;2023-03-01T08:31:14;25.30;;;12.15;;
26335;SDS011;14047;50.936;4.654;2023-03-01T08:33:49;19.02;;;11.80;;
26335;SDS011;14047;50.936;4.654;2023-03-01T08:36:20;19.95;;;12.73;;
26335;SDS011;14047;50.936;4.654;2023-03-01T08:38:56;21.20;;;12.32;;
26335;SDS011;14047;50.936;4.654;2023-03-01T08:41:22;18.98;;;11.80;;
26335;SDS011;14047;50.936;4.654;2023-03-01T08:43:49;19.05;;;11.13;;
26335;SDS011;14047;50.936;4.654;2023-03-01T08:46:15;28.13;;;11.60;;
26335;SDS011;14047;50.936;4.654;2023-03-01T08:48:41;29.58;;;12.23;;
26335;SDS011;14047;50.936;4.654;2023-03-01T08:51:11;18.27;;;11.38;;
26335;SDS011;14047;50.936;4.654;2023-03-01T08:53:39;20.15;;;11.85;;
26335;SDS011;14047;50.936;4.654;2023-03-01T08:56:06;22.65;;;10.63;;
26335;SDS011;14047;50.936;4.654;2023-03-01T08:58:32;22.83;;;10.80;;
26335;SDS011;14047;50.936;4.654;2023-03-01T09:00:59;24.90;;;11.98;;
26335;SDS011;14047;50.936;4.654;2023-03-01T09:03:25;24.75;;;12.32;;
26335;SDS011;14047;50.936;4.654;2023-03-01T09:05:52;19.27;;;10.60;;
26335;SDS011;14047;50.936;4.654;2023-03-01T09:08:18;19.63;;;12.27;;
26335;SDS011;14047;50.936;4.654;2023-03-01T09:10:45;21.20;;;11.18;;
26335;SDS011;14047;50.936;4.654;2023-03-01T09:13:11;22.45;;;11.10;;
26335;SDS011;14047;50.936;4.654;2023-03-01T09:15:37;17.55;;;10.93;;
26335;SDS011;14047;50.936;4.654;2023-03-01T09:18:04;18.38;;;11.13;;
26335;SDS011;14047;50.936;4.654;2023-03-01T09:20:31;18.80;;;10.02;;
26335;SDS011;14047;50.936;4.654;2023-03-01T09:22:57;19.95;;;11.48;;
26335;SDS011;14047;50.936;4.654;2023-03-01T09:25:23;21.90;;;10.82;;
26335;SDS011;14047;50.936;4.654;2023-03-01T09:27:53;19.42;;;10.98;;
26335;SDS011;14047;50.936;4.654;2023-03-01T09:30:20;17.10;;;10.57;;
26335;SDS011;14047;50.936;4.654;2023-03-01T09:32:47;19.38;;;10.43;;
26335;SDS011;14047;50.936;4.654;2023-03-01T09:35:13;15.32;;;10.15;;
26335;SDS011;14047;50.936;4.654;2023-03-01T09:37:39;14.52;;;7.72;;
26335;SDS011;14047;50.936;4.654;2023-03-01T09:40:14;23.23;;;10.13;;
26335;SDS011;14047;50.936;4.654;2023-03-01T09:42:53;20.40;;;10.20;;
26335;SDS011;14047;50.936;4.654;2023-03-01T09:45:35;15.95;;;9.75;;
26335;SDS011;14047;50.936;4.654;2023-03-01T09:48:05;17.20;;;10.43;;
26335;SDS011;14047;50.936;4.654;2023-03-01T09:50:39;17.88;;;9.50;;
26335;SDS011;14047;50.936;4.654;2023-03-01T09:53:16;19.08;;;10.93;;
26335;SDS011;14047;50.936;4.654;2023-03-01T09:55:53;24.88;;;10.80;;
26335;SDS011;14047;50.936;4.654;2023-03-01T10:01:35;19.95;;;10.65;;
26335;SDS011;14047;50.936;4.654;2023-03-01T10:06:38;15.32;;;9.93;;
26335;SDS011;14047;50.936;4.654;2023-03-01T10:09:13;19.25;;;9.85;;
26335;SDS011;14047;50.936;4.654;2023-03-01T10:11:44;25.75;;;10.77;;
26335;SDS011;14047;50.936;4.654;2023-03-01T10:19:49;23.38;;;10.13;;
26335;SDS011;14047;50.936;4.654;2023-03-01T10:24:43;19.70;;;10.45;;
26335;SDS011;14047;50.936;4.654;2023-03-01T10:29:53;20.35;;;10.85;;
26335;SDS011;14047;50.936;4.654;2023-03-01T10:32:42;17.67;;;8.52;;
26335;SDS011;14047;50.936;4.654;2023-03-01T10:35:16;13.25;;;7.75;;
26335;SDS011;14047;50.936;4.654;2023-03-01T10:37:56;17.85;;;9.52;;
26335;SDS011;14047;50.936;4.654;2023-03-01T10:40:23;16.30;;;9.52;;
26335;SDS011;14047;50.936;4.654;2023-03-01T10:42:49;16.42;;;10.20;;
26335;SDS011;14047;50.936;4.654;2023-03-01T10:50:43;16.20;;;9.30;;
26335;SDS011;14047;50.936;4.654;2023-03-01T10:53:22;21.73;;;10.30;;
26335;SDS011;14047;50.936;4.654;2023-03-01T10:58:25;16.77;;;9.57;;
26335;SDS011;14047;50.936;4.654;2023-03-01T11:00:56;27.45;;;9.93;;
26335;SDS011;14047;50.936;4.654;2023-03-01T11:03:29;18.02;;;9.68;;
26335;SDS011;14047;50.936;4.654;2023-03-01T11:05:58;14.05;;;7.22;;
26335;SDS011;14047;50.936;4.654;2023-03-01T11:13:52;16.92;;;8.98;;
26335;SDS011;14047;50.936;4.654;2023-03-01T11:16:31;17.92;;;9.07;;
26335;SDS011;14047;50.936;4.654;2023-03-01T11:21:41;11.63;;;6.20;;
26335;SDS011;14047;50.936;4.654;2023-03-01T11:24:31;14.90;;;7.70;;
26335;SDS011;14047;50.936;4.654;2023-03-01T11:27:04;16.48;;;9.45;;
26335;SDS011;14047;50.936;4.654;2023-03-01T11:29:38;14.85;;;8.95;;
26335;SDS011;14047;50.936;4.654;2023-03-01T11:32:08;15.65;;;7.85;;
26335;SDS011;14047;50.936;4.654;2023-03-01T11:37:33;14.48;;;9.07;;
26335;SDS011;14047;50.936;4.654;2023-03-01T11:42:47;12.88;;;8.75;;
26335;SDS011;14047;50.936;4.654;2023-03-01T11:45:14;16.40;;;9.27;;
26335;SDS011;14047;50.936;4.654;2023-03-01T12:01:25;16.75;;;8.73;;
26335;SDS011;14047;50.936;4.654;2023-03-01T12:10:14;15.93;;;8.70;;
26335;SDS011;14047;50.936;4.654;2023-03-01T12:40:27;20.23;;;8.65;;
26335;SDS011;14047;50.936;4.654;2023-03-01T12:51:17;15.45;;;6.63;;
26335;SDS011;14047;50.936;4.654;2023-03-01T12:53:48;17.88;;;9.07;;
26335;SDS011;14047;50.936;4.654;2023-03-01T12:56:19;17.27;;;8.77;;
26335;SDS011;14047;50.936;4.654;2023-03-01T13:07:58;13.93;;;7.30;;
26335;SDS011;14047;50.936;4.654;2023-03-01T13:10:46;15.30;;;8.18;;
26335;SDS011;14047;50.936;4.654;2023-03-01T13:13:27;15.48;;;9.32;;
26335;SDS011;14047;50.936;4.654;2023-03-01T13:15:54;16.70;;;9.80;;
26335;SDS011;14047;50.936;4.654;2023-03-01T13:20:54;20.88;;;9.55;;
26335;SDS011;14047;50.936;4.654;2023-03-01T13:31:55;21.95;;;9.15;;
26335;SDS011;14047;50.936;4.654;2023-03-01T13:33:57;13.55;;;8.82;;
26335;SDS011;14047;50.936;4.654;2023-03-01T13:38:58;19.80;;;8.52;;
26335;SDS011;14047;50.936;4.654;2023-03-01T13:49:53;16.33;;;8.25;;
26335;SDS011;14047;50.936;4.654;2023-03-01T13:52:38;14.75;;;8.60;;
26335;SDS011;14047;50.936;4.654;2023-03-01T13:55:27;22.40;;;9.35;;
26335;SDS011;14047;50.936;4.654;2023-03-01T13:57:56;12.43;;;5.57;;
26335;SDS011;14047;50.936;4.654;2023-03-01T14:03:18;11.57;;;7.70;;
26335;SDS011;14047;50.936;4.654;2023-03-01T14:08:37;14.32;;;8.35;;
26335;SDS011;14047;50.936;4.654;2023-03-01T14:11:25;13.68;;;6.97;;
26335;SDS011;14047;50.936;4.654;2023-03-01T14:20:22;14.35;;;8.38;;
26335;SDS011;14047;50.936;4.654;2023-03-01T14:22:51;13.85;;;8.75;;
26335;SDS011;14047;50.936;4.654;2023-03-01T14:28:04;15.52;;;7.38;;
26335;SDS011;14047;50.936;4.654;2023-03-01T14:30:50;11.50;;;7.82;;
26335;SDS011;14047;50.936;4.654;2023-03-01T14:36:25;13.85;;;8.07;;
26335;SDS011;14047;50.936;4.654;2023-03-01T14:38:39;18.42;;;8.85;;
26335;SDS011;14047;50.936;4.654;2023-03-01T14:41:08;12.23;;;8.18;;
26335;SDS011;14047;50.936;4.654;2023-03-01T14:43:51;19.35;;;8.38;;
26335;SDS011;14047;50.936;4.654;2023-03-01T14:46:32;18.63;;;9.00;;
26335;SDS011;14047;50.936;4.654;2023-03-01T14:49:05;15.43;;;8.73;;
26335;SDS011;14047;50.936;4.654;2023-03-01T14:51:36;16.48;;;8.32;;
26335;SDS011;14047;50.936;4.654;2023-03-01T14:54:10;12.88;;;8.13;;
26335;SDS011;14047;50.936;4.654;2023-03-01T14:56:50;14.13;;;8.27;;
26335;SDS011;14047;50.936;4.654;2023-03-01T14:59:21;14.98;;;8.85;;
26335;SDS011;14047;50.936;4.654;2023-03-01T15:01:49;17.23;;;8.25;;
26335;SDS011;14047;50.936;4.654;2023-03-01T15:04:16;11.30;;;6.85;;
26335;SDS011;14047;50.936;4.654;2023-03-01T15:06:44;14.20;;;8.27;;
26335;SDS011;14047;50.936;4.654;2023-03-01T15:09:15;15.20;;;7.90;;
26335;SDS011;14047;50.936;4.654;2023-03-01T15:11:42;11.45;;;8.10;;
26335;SDS011;14047;50.936;4.654;2023-03-01T15:14:25;11.63;;;7.00;;
26335;SDS011;14047;50.936;4.654;2023-03-01T15:16:53;13.18;;;7.55;;
26335;SDS011;14047;50.936;4.654;2023-03-01T15:19:19;10.55;;;7.60;;
26335;SDS011;14047;50.936;4.654;2023-03-01T15:21:49;12.55;;;7.25;;
26335;SDS011;14047;50.936;4.654;2023-03-01T15:24:33;17.38;;;8.23;;
26335;SDS011;14047;50.936;4.654;2023-03-01T15:27:01;18.88;;;8.30;;
26335;SDS011;14047;50.936;4.654;2023-03-01T15:29:32;12.30;;;7.35;;
26335;SDS011;14047;50.936;4.654;2023-03-01T15:32:20;17.80;;;8.05;;
26335;SDS011;14047;50.936;4.654;2023-03-01T15:34:58;16.80;;;7.85;;
26335;SDS011;14047;50.936;4.654;2023-03-01T15:37:45;15.57;;;7.15;;
26335;SDS011;14047;50.936;4.654;2023-03-01T15:40:27;18.10;;;7.07;;
26335;SDS011;14047;50.936;4.654;2023-03-01T15:42:57;11.73;;;6.93;;
26335;SDS011;14047;50.936;4.654;2023-03-01T15:45:25;11.55;;;6.28;;
26335;SDS011;14047;50.936;4.654;2023-03-01T15:47:54;9.82;;;6.38;;
26335;SDS011;14047;50.936;4.654;2023-03-01T15:50:28;20.73;;;7.25;;
26335;SDS011;14047;50.936;4.654;2023-03-01T15:52:58;15.13;;;7.10;;
26335;SDS011;14047;50.936;4.654;2023-03-01T15:55:27;8.23;;;6.07;;
26335;SDS011;14047;50.936;4.654;2023-03-01T15:58:13;11.98;;;7.35;;
26335;SDS011;14047;50.936;4.654;2023-03-01T16:00:40;13.27;;;7.15;;
26335;SDS011;14047;50.936;4.654;2023-03-01T16:03:07;16.80;;;6.55;;
26335;SDS011;14047;50.936;4.654;2023-03-01T16:05:37;11.38;;;7.15;;
26335;SDS011;14047;50.936;4.654;2023-03-01T16:08:04;13.43;;;7.10;;
26335;SDS011;14047;50.936;4.654;2023-03-01T16:10:31;18.73;;;6.80;;
26335;SDS011;14047;50.936;4.654;2023-03-01T16:12:58;13.55;;;6.57;;
26335;SDS011;14047;50.936;4.654;2023-03-01T16:15:26;11.55;;;6.72;;
26335;SDS011;14047;50.936;4.654;2023-03-01T16:17:54;11.88;;;6.63;;
26335;SDS011;14047;50.936;4.654;2023-03-01T16:20:23;12.18;;;6.53;;
26335;SDS011;14047;50.936;4.654;2023-03-01T16:22:50;11.75;;;6.60;;
26335;SDS011;14047;50.936;4.654;2023-03-01T16:25:17;10.10;;;6.93;;
26335;SDS011;14047;50.936;4.654;2023-03-01T16:27:46;9.77;;;6.95;;
26335;SDS011;14047;50.936;4.654;2023-03-01T16:30:17;11.23;;;6.90;;
26335;SDS011;14047;50.936;4.654;2023-03-01T16:32:46;11.30;;;6.95;;
26335;SDS011;14047;50.936;4.654;2023-03-01T16:35:13;11.38;;;7.10;;
26335;SDS011;14047;50.936;4.654;2023-03-01T16:37:42;10.68;;;6.95;;
26335;SDS011;14047;50.936;4.654;2023-03-01T16:40:18;10.77;;;6.70;;
26335;SDS011;14047;50.936;4.654;2023-03-01T16:42:47;11.35;;;6.68;;
26335;SDS011;14047;50.936;4.654;2023-03-01T16:45:13;12.43;;;7.45;;
26335;SDS011;14047;50.936;4.654;2023-03-01T16:47:39;15.38;;;8.10;;
26335;SDS011;14047;50.936;4.654;2023-03-01T16:50:05;12.57;;;7.60;;
26335;SDS011;14047;50.936;4.654;2023-03-01T16:52:31;12.70;;;6.95;;
26335;SDS011;14047;50.936;4.654;2023-03-01T16:54:59;12.00;;;7.05;;
26335;SDS011;14047;50.936;4.654;2023-03-01T16:57:25;18.23;;;7.75;;
26335;SDS011;14047;50.936;4.654;2023-03-01T16:59:51;12.18;;;7.22;;
26335;SDS011;14047;50.936;4.654;2023-03-01T17:02:21;15.25;;;7.40;;
26335;SDS011;14047;50.936;4.654;2023-03-01T17:04:53;11.25;;;7.30;;
26335;SDS011;14047;50.936;4.654;2023-03-01T17:07:20;12.00;;;7.03;;
26335;SDS011;14047;50.936;4.654;2023-03-01T17:09:47;11.25;;;7.00;;
26335;SDS011;14047;50.936;4.654;2023-03-01T17:12:13;12.02;;;6.70;;